Time;durP1;ratioP1;P1;durP2;ratioP2;P2;SDS_P1;SDS_P2;PMS_P1;PMS_P2;Temp;Humidity;BMP_temperature;BMP_pressure;BME280_temperature;BME280_humidity;BME280_pressure;Samples;Min_cycle;Max_cycle;Signal;HPM_P1;HPM_P2
2023/08/01 00:02:19;;;;;;;5.30;3.67;;;19.30;17.00;;;;;;4915783;29;20782;-72
2023/08/01 00:04:45;;;;;;;4.40;3.27;;;19.20;18.90;;;;;;4916020;29;20187;-71
2023/08/01 00:07:10;;;;;;;3.40;2.57;;;19.30;17.10;;;;;;4916102;29;20238;-72
2023/08/01 00:09:36;;;;;;;4.60;3.17;;;19.30;18.20;;;;;;4914659;29;20272;-71
2023/08/01 00:12:02;;;;;;;4.00;2.73;;;19.30;18.30;;;;;;4915505;29;20262;-72
2023/08/01 00:14:27;;;;;;;4.73;2.60;;;19.30;16.90;;;;;;4915919;29;20247;-72
2023/08/01 00:16:53;;;;;;;4.03;2.53;;;19.30;17.70;;;;;;4915681;29;20689;-72
2023/08/01 00:19:19;;;;;;;5.10;3.70;;;19.30;17.70;;;;;;4915730;29;20613;-71
2023/08/01 00:21:44;;;;;;;4.20;3.00;;;19.30;16.10;;;;;;4915464;29;20412;-72
2023/08/01 00:24:10;;;;;;;4.23;2.70;;;19.40;16.50;;;;;;4915664;29;20171;-72
2023/08/01 00:26:36;;;;;;;4.00;3.37;;;19.40;16.70;;;;;;4915581;29;20203;-72
2023/08/01 00:29:01;;;;;;;4.73;3.60;;;19.40;16.10;;;;;;4914532;29;20183;-72
2023/08/01 00:31:27;;;;;;;4.17;3.50;;;19.50;16.20;;;;;;4915608;29;20175;-72
2023/08/01 00:33:52;;;;;;;4.37;2.80;;;19.50;15.20;;;;;;4916210;29;20259;-72
2023/08/01 00:36:18;;;;;;;5.57;2.87;;;19.60;13.80;;;;;;4917831;29;20266;-73
2023/08/01 00:38:44;;;;;;;3.03;2.70;;;19.70;14.80;;;;;;4918246;29;20246;-73
2023/08/01 00:41:10;;;;;;;4.63;2.23;;;19.70;14.20;;;;;;4916363;29;20189;-73
2023/08/01 00:43:36;;;;;;;5.00;2.87;;;19.80;13.90;;;;;;4916482;29;20183;-72
2023/08/01 00:46:04;;;;;;;4.43;2.57;;;19.70;14.60;;;;;;4916380;29;20446;-72
2023/08/01 00:48:30;;;;;;;4.07;3.10;;;19.80;14.40;;;;;;4915837;29;20238;-73
2023/08/01 00:50:59;;;;;;;5.63;3.20;;;19.80;12.60;;;;;;4915614;29;20448;-72
2023/08/01 00:53:24;;;;;;;4.17;2.77;;;19.90;12.70;;;;;;4915123;29;20473;-72
2023/08/01 00:55:53;;;;;;;3.60;3.07;;;20.00;12.10;;;;;;4915496;29;20806;-72
2023/08/01 00:58:19;;;;;;;6.87;3.87;;;20.10;12.10;;;;;;4915489;29;20175;-72
2023/08/01 01:00:45;;;;;;;5.03;3.87;;;20.20;12.20;;;;;;4917527;29;20514;-73
2023/08/01 01:03:11;;;;;;;6.30;3.67;;;20.30;11.40;;;;;;4918756;29;20510;-72
2023/08/01 01:05:41;;;;;;;3.93;3.00;;;20.40;11.00;;;;;;4918880;29;20530;-72
2023/08/01 01:08:07;;;;;;;4.93;3.43;;;20.40;11.80;;;;;;4919123;29;20175;-72
2023/08/01 01:10:32;;;;;;;5.50;3.27;;;20.40;11.70;;;;;;4918806;29;20427;-72
2023/08/01 01:12:58;;;;;;;4.83;3.40;;;20.40;11.70;;;;;;4918510;29;20426;-72
2023/08/01 01:15:24;;;;;;;4.70;3.10;;;20.50;11.10;;;;;;4940091;23;20811;-68
2023/08/01 01:17:49;;;;;;;3.70;3.03;;;20.50;11.60;;;;;;4975930;28;20216;-68
2023/08/01 01:20:19;;;;;;;5.63;3.70;;;20.50;11.70;;;;;;4975525;28;20170;-68
2023/08/01 01:22:44;;;;;;;3.80;2.80;;;20.50;11.60;;;;;;4973822;28;20209;-68
2023/08/01 01:25:11;;;;;;;3.87;2.17;;;20.50;11.70;;;;;;4990558;28;20421;-68
2023/08/01 01:27:37;;;;;;;4.23;2.83;;;20.50;12.00;;;;;;4974466;28;20667;-68
2023/08/01 01:30:05;;;;;;;5.90;3.33;;;20.50;11.90;;;;;;4975717;28;20471;-68
2023/08/01 01:32:30;;;;;;;3.83;2.63;;;20.50;12.10;;;;;;4975225;28;20906;-68
2023/08/01 01:34:56;;;;;;;3.93;3.20;;;20.50;11.60;;;;;;4974255;28;20522;-69
2023/08/01 01:37:21;;;;;;;3.87;2.90;;;20.50;11.70;;;;;;4975505;28;20174;-69
2023/08/01 01:39:47;;;;;;;4.10;3.07;;;20.50;12.40;;;;;;4975800;28;20255;-68
2023/08/01 01:42:13;;;;;;;5.10;2.50;;;20.50;13.00;;;;;;4975410;28;20181;-69
2023/08/01 01:44:39;;;;;;;3.20;2.57;;;20.40;12.50;;;;;;4975430;28;20182;-68
2023/08/01 01:47:04;;;;;;;3.43;2.33;;;20.40;12.40;;;;;;4974179;28;20216;-70
2023/08/01 01:49:30;;;;;;;4.00;2.80;;;20.40;12.40;;;;;;4975244;28;20260;-68
2023/08/01 01:51:56;;;;;;;6.40;2.90;;;20.30;13.00;;;;;;4973565;28;20826;-68
2023/08/01 01:54:21;;;;;;;4.47;3.57;;;20.30;14.40;;;;;;4975147;28;20204;-68
2023/08/01 01:56:47;;;;;;;7.10;3.40;;;20.30;14.50;;;;;;4973819;28;20224;-68
2023/08/01 01:59:12;;;;;;;4.43;3.80;;;20.20;14.70;;;;;;4975178;28;20185;-68
2023/08/01 02:01:38;;;;;;;4.60;2.83;;;20.20;15.40;;;;;;4974841;28;20181;-68
2023/08/01 02:04:03;;;;;;;4.20;3.40;;;20.20;15.40;;;;;;4975013;28;20192;-68
2023/08/01 02:06:29;;;;;;;5.10;3.10;;;20.10;14.70;;;;;;4974873;28;20209;-68
2023/08/01 02:08:54;;;;;;;5.53;2.80;;;20.10;16.20;;;;;;4974952;28;20665;-68
2023/08/01 02:11:20;;;;;;;4.10;2.17;;;20.10;15.40;;;;;;4974549;28;20256;-69
2023/08/01 02:13:45;;;;;;;4.30;2.80;;;20.10;14.60;;;;;;4974546;28;20209;-68
2023/08/01 02:16:11;;;;;;;4.10;3.00;;;20.10;15.00;;;;;;4974705;28;20252;-68
2023/08/01 02:18:36;;;;;;;3.83;2.70;;;20.10;14.80;;;;;;4974815;28;20462;-68
2023/08/01 02:21:02;;;;;;;4.90;2.60;;;20.20;13.90;;;;;;4974823;28;20188;-69
2023/08/01 02:23:28;;;;;;;3.30;2.63;;;20.20;14.00;;;;;;4974317;28;20192;-68
2023/08/01 02:25:54;;;;;;;6.03;3.13;;;20.30;14.00;;;;;;4974679;28;20232;-68
2023/08/01 02:28:20;;;;;;;12.40;3.20;;;20.30;12.70;;;;;;4974741;28;20458;-69
2023/08/01 02:30:45;;;;;;;3.90;3.07;;;20.30;13.60;;;;;;4973254;28;20177;-68
2023/08/01 02:33:11;;;;;;;4.10;2.80;;;20.30;13.20;;;;;;4972934;28;20413;-68
2023/08/01 02:35:37;;;;;;;5.13;2.90;;;20.30;13.60;;;;;;4974528;28;20655;-68
2023/08/01 02:38:03;;;;;;;3.90;2.80;;;20.20;13.50;;;;;;4973420;28;20597;-68
2023/08/01 02:40:29;;;;;;;5.53;3.27;;;20.30;13.70;;;;;;4973105;28;20495;-68
2023/08/01 02:42:54;;;;;;;9.90;2.80;;;20.30;13.90;;;;;;4974209;28;20186;-68
2023/08/01 02:45:20;;;;;;;6.40;3.30;;;20.30;14.00;;;;;;4974258;28;20213;-68
2023/08/01 02:47:45;;;;;;;5.03;2.37;;;20.20;13.90;;;;;;4974280;28;20181;-68
2023/08/01 02:50:11;;;;;;;4.60;2.90;;;20.20;14.10;;;;;;4974304;28;20193;-67
2023/08/01 02:52:37;;;;;;;6.73;3.77;;;20.20;14.20;;;;;;4972507;28;20181;-68
2023/08/01 02:55:02;;;;;;;4.63;3.40;;;20.20;14.20;;;;;;4972925;28;20212;-68
2023/08/01 02:57:28;;;;;;;4.00;2.17;;;20.20;14.10;;;;;;4974088;28;20694;-68
2023/08/01 02:59:53;;;;;;;3.20;2.50;;;20.20;13.80;;;;;;4972851;28;20220;-68
2023/08/01 03:02:19;;;;;;;2.80;2.40;;;20.20;14.10;;;;;;4972912;28;20185;-68
2023/08/01 03:04:44;;;;;;;6.80;3.53;;;20.20;14.10;;;;;;4974738;28;20182;-67
2023/08/01 03:07:10;;;;;;;4.13;2.97;;;20.20;13.60;;;;;;4974285;28;20204;-68
2023/08/01 03:09:35;;;;;;;6.53;2.87;;;20.30;13.70;;;;;;4974362;28;20189;-68
2023/08/01 03:12:01;;;;;;;4.90;3.23;;;20.30;13.70;;;;;;4972800;28;20185;-68
2023/08/01 03:14:26;;;;;;;4.43;2.97;;;20.30;13.60;;;;;;4974010;28;20252;-68
2023/08/01 03:16:52;;;;;;;4.47;3.23;;;20.30;12.60;;;;;;4972540;28;20224;-68
2023/08/01 03:19:18;;;;;;;3.97;2.90;;;20.30;12.30;;;;;;4972557;28;20177;-68
2023/08/01 03:21:43;;;;;;;4.97;3.30;;;20.30;13.00;;;;;;4973492;28;20241;-68
2023/08/01 03:24:09;;;;;;;4.97;3.23;;;20.30;13.10;;;;;;4971753;28;20216;-68
2023/08/01 03:26:36;;;;;;;4.23;3.03;;;20.20;12.30;;;;;;4973715;28;20504;-68
2023/08/01 03:29:01;;;;;;;4.97;2.87;;;20.30;13.20;;;;;;4973703;28;20185;-68
2023/08/01 03:31:27;;;;;;;2.83;2.50;;;20.20;12.70;;;;;;4972168;28;20952;-68
2023/08/01 03:33:53;;;;;;;3.43;2.80;;;20.20;12.60;;;;;;4973538;28;20275;-68
2023/08/01 03:36:18;;;;;;;5.50;2.97;;;20.30;13.30;;;;;;4972208;28;20228;-68
2023/08/01 03:38:44;;;;;;;5.30;2.60;;;20.20;12.70;;;;;;4973470;28;20241;-68
2023/08/01 03:41:10;;;;;;;3.93;2.87;;;20.20;12.20;;;;;;4973561;28;20173;-68
2023/08/01 03:43:35;;;;;;;5.07;3.10;;;20.20;12.60;;;;;;4972132;28;20673;-68
2023/08/01 03:46:01;;;;;;;3.53;2.70;;;20.20;12.30;;;;;;4972177;28;20212;-68
2023/08/01 03:48:26;;;;;;;3.40;2.53;;;20.20;12.40;;;;;;4973524;28;20256;-68
2023/08/01 03:50:52;;;;;;;3.60;2.17;;;20.20;12.70;;;;;;4972033;28;20427;-68
2023/08/01 03:53:18;;;;;;;3.77;2.60;;;20.20;13.30;;;;;;4971672;28;20181;-68
2023/08/01 03:55:48;;;;;;;6.03;2.97;;;20.20;13.20;;;;;;4973256;28;20248;-68
2023/08/01 03:58:14;;;;;;;4.27;3.30;;;20.20;13.90;;;;;;4972408;28;20181;-68
2023/08/01 04:00:39;;;;;;;4.13;3.00;;;20.20;12.90;;;;;;4973219;28;20424;-68
2023/08/01 04:03:05;;;;;;;5.90;3.03;;;20.20;13.60;;;;;;4972908;28;20178;-68
2023/08/01 04:05:30;;;;;;;4.40;3.30;;;20.20;13.20;;;;;;4971763;28;20205;-68
2023/08/01 04:07:56;;;;;;;5.70;3.00;;;20.20;13.20;;;;;;4973060;28;20173;-68
2023/08/01 04:10:22;;;;;;;3.10;2.57;;;20.10;12.90;;;;;;4973127;28;20188;-68
2023/08/01 04:12:48;;;;;;;5.53;2.87;;;20.10;13.30;;;;;;4971426;28;20786;-68
2023/08/01 04:15:14;;;;;;;5.50;2.47;;;20.10;12.80;;;;;;4972784;28;20965;-69
2023/08/01 04:17:40;;;;;;;5.93;2.60;;;20.10;12.60;;;;;;4973015;28;20492;-68
2023/08/01 04:20:06;;;;;;;3.50;2.23;;;20.10;12.60;;;;;;4971572;28;20177;-68
2023/08/01 04:22:31;;;;;;;4.47;3.20;;;20.10;12.20;;;;;;4971427;28;20185;-68
2023/08/01 04:24:57;;;;;;;5.53;2.77;;;20.10;12.30;;;;;;4971620;28;20479;-68
2023/08/01 04:27:23;;;;;;;4.10;2.60;;;20.00;12.20;;;;;;4971661;28;20193;-68
2023/08/01 04:29:48;;;;;;;4.37;2.20;;;20.00;12.10;;;;;;4971610;28;20269;-68
2023/08/01 04:32:15;;;;;;;5.57;3.53;;;20.10;12.20;;;;;;4972608;28;20192;-68
2023/08/01 04:34:41;;;;;;;8.60;3.27;;;20.00;12.70;;;;;;4973262;28;20617;-68
2023/08/01 04:37:06;;;;;;;3.90;2.77;;;20.00;12.90;;;;;;4976659;28;20857;-68
2023/08/01 04:39:32;;;;;;;5.20;3.40;;;20.00;13.20;;;;;;4976711;28;20470;-68
2023/08/01 04:41:58;;;;;;;7.10;3.37;;;20.00;12.50;;;;;;4976424;28;20184;-68
2023/08/01 04:44:23;;;;;;;7.70;3.13;;;20.00;12.30;;;;;;4975178;28;20566;-68
2023/08/01 04:46:49;;;;;;;5.53;3.27;;;20.00;12.90;;;;;;4976424;28;20213;-69
2023/08/01 04:49:14;;;;;;;3.63;2.80;;;20.00;12.80;;;;;;4975188;28;20293;-68
2023/08/01 04:51:40;;;;;;;3.80;3.00;;;20.00;12.30;;;;;;4976203;28;20216;-68
2023/08/01 04:54:06;;;;;;;5.10;3.17;;;20.00;12.10;;;;;;4976452;28;20209;-67
2023/08/01 04:56:31;;;;;;;4.20;3.20;;;20.10;12.20;;;;;;4974505;28;20243;-69
2023/08/01 04:58:57;;;;;;;5.43;3.73;;;20.00;11.80;;;;;;4976222;28;20181;-73
2023/08/01 05:01:22;;;;;;;4.87;4.37;;;20.00;11.10;;;;;;4974761;28;20698;-71
2023/08/01 05:03:48;;;;;;;5.90;4.20;;;20.00;9.50;;;;;;4975834;28;20271;-72
2023/08/01 05:06:13;;;;;;;5.73;4.53;;;20.10;10.00;;;;;;4976082;28;20200;-73
2023/08/01 05:08:39;;;;;;;9.90;4.00;;;20.00;8.50;;;;;;4974925;28;20189;-71
2023/08/01 05:11:04;;;;;;;6.13;4.57;;;20.00;9.20;;;;;;4975023;28;20264;-72
2023/08/01 05:13:30;;;;;;;5.93;3.60;;;20.00;8.00;;;;;;4975044;28;20694;-71
2023/08/01 05:15:55;;;;;;;4.70;3.73;;;20.00;7.60;;;;;;4975840;28;20240;-71
2023/08/01 05:18:21;;;;;;;5.70;4.23;;;20.00;7.60;;;;;;4975922;28;20544;-71
2023/08/01 05:20:46;;;;;;;3.80;3.03;;;20.10;7.60;;;;;;4975802;28;20177;-72
2023/08/01 05:23:12;;;;;;;3.83;3.03;;;20.20;7.10;;;;;;4975639;28;20232;-72
2023/08/01 05:25:38;;;;;;;5.83;3.40;;;20.30;6.10;;;;;;4975686;28;20201;-70
2023/08/01 05:28:03;;;;;;;7.23;4.20;;;20.30;5.90;;;;;;4975605;28;20658;-71
2023/08/01 05:30:29;;;;;;;4.50;3.43;;;20.40;5.40;;;;;;4975556;28;20627;-70
2023/08/01 05:32:54;;;;;;;3.53;3.20;;;20.50;3.80;;;;;;4975239;28;20185;-70
2023/08/01 05:35:21;;;;;;;3.93;3.40;;;20.50;4.40;;;;;;4975501;28;20276;-70
2023/08/01 05:37:46;;;;;;;3.43;2.90;;;20.60;4.50;;;;;;4975466;28;20173;-71
2023/08/01 05:40:12;;;;;;;6.10;3.83;;;20.60;3.30;;;;;;4975487;28;20503;-70
2023/08/01 05:42:38;;;;;;;4.20;3.23;;;20.60;3.40;;;;;;4975157;28;20232;-71
2023/08/01 05:45:04;;;;;;;4.70;3.50;;;20.60;3.30;;;;;;4975723;28;20256;-70
2023/08/01 05:47:30;;;;;;;2.97;2.67;;;20.70;3.10;;;;;;4974143;28;20177;-71
2023/08/01 05:49:55;;;;;;;3.17;2.87;;;20.70;3.20;;;;;;4975243;28;20424;-70
2023/08/01 05:52:21;;;;;;;5.00;3.03;;;20.80;2.30;;;;;;4975020;28;20413;-71
2023/08/01 05:54:47;;;;;;;2.90;2.60;;;20.90;3.10;;;;;;4973897;28;20213;-70
2023/08/01 05:57:12;;;;;;;4.17;3.50;;;20.90;2.60;;;;;;4973644;28;20213;-71
2023/08/01 05:59:38;;;;;;;3.80;3.00;;;20.90;3.00;;;;;;4975201;28;20181;-71
2023/08/01 06:02:03;;;;;;;4.67;3.23;;;20.90;3.20;;;;;;4974804;28;20221;-70
2023/08/01 06:04:29;;;;;;;5.47;3.50;;;20.90;3.30;;;;;;4975097;28;20251;-71
2023/08/01 06:06:55;;;;;;;4.20;3.20;;;20.90;3.50;;;;;;4975018;28;20206;-70
2023/08/01 06:09:21;;;;;;;4.57;3.97;;;20.90;3.30;;;;;;4974951;28;20177;-70
2023/08/01 06:11:47;;;;;;;4.20;3.33;;;20.80;3.20;;;;;;4974640;28;20425;-70
2023/08/01 06:14:12;;;;;;;4.50;4.10;;;20.80;3.50;;;;;;4974935;28;20283;-71
2023/08/01 06:16:38;;;;;;;6.30;3.87;;;20.70;4.40;;;;;;4974597;28;20268;-70
2023/08/01 06:19:04;;;;;;;5.53;3.30;;;20.60;4.50;;;;;;4974829;28;20216;-70
2023/08/01 06:21:29;;;;;;;6.57;4.33;;;20.60;5.30;;;;;;4974515;28;20711;-71
2023/08/01 06:23:55;;;;;;;6.23;3.73;;;20.60;5.40;;;;;;4974469;28;20421;-76
2023/08/01 06:26:20;;;;;;;5.30;4.27;;;20.50;5.90;;;;;;4973223;28;20236;-71
2023/08/01 06:28:46;;;;;;;6.10;4.00;;;20.40;6.20;;;;;;4974604;28;20644;-71
2023/08/01 06:31:11;;;;;;;6.17;4.57;;;20.30;6.60;;;;;;4973179;28;20208;-71
2023/08/01 06:33:37;;;;;;;7.47;4.40;;;20.40;7.80;;;;;;4974138;28;20233;-71
2023/08/01 06:36:03;;;;;;;5.43;4.40;;;20.30;7.80;;;;;;4974189;28;20208;-72
2023/08/01 06:38:28;;;;;;;5.37;4.13;;;20.30;7.80;;;;;;4974464;28;20665;-72
2023/08/01 06:40:54;;;;;;;6.27;5.00;;;20.20;7.70;;;;;;4972996;28;20188;-72
2023/08/01 06:43:19;;;;;;;6.47;4.30;;;20.20;7.10;;;;;;4972167;28;20178;-71
2023/08/01 06:45:45;;;;;;;6.87;4.50;;;20.30;7.10;;;;;;4969384;28;20205;-71
2023/08/01 06:48:11;;;;;;;7.00;4.70;;;20.30;7.00;;;;;;4970771;28;20184;-70
2023/08/01 06:50:36;;;;;;;6.03;4.10;;;20.30;7.10;;;;;;4969948;28;20223;-70
2023/08/01 06:53:02;;;;;;;4.60;3.70;;;20.20;7.00;;;;;;4969557;28;20291;-70
2023/08/01 06:55:27;;;;;;;6.07;3.60;;;20.20;7.70;;;;;;4969248;28;20213;-71
2023/08/01 06:57:53;;;;;;;5.73;4.37;;;20.20;7.70;;;;;;4969646;28;20200;-70
2023/08/01 07:00:18;;;;;;;6.13;4.20;;;20.20;7.70;;;;;;4983247;28;20191;-71
2023/08/01 07:02:44;;;;;;;5.00;4.57;;;20.20;7.70;;;;;;4989674;28;20234;-71
2023/08/01 07:05:17;;;;;;;6.03;3.23;;;20.30;7.80;;;;;;4990349;28;20563;-72
2023/08/01 07:07:42;;;;;;;3.87;3.40;;;20.40;7.20;;;;;;4993304;28;20181;-70
2023/08/01 07:10:08;;;;;;;4.40;3.80;;;20.40;7.30;;;;;;4987483;28;20841;-71
2023/08/01 07:12:34;;;;;;;12.97;6.90;;;20.30;6.60;;;;;;4972725;28;20181;-70
2023/08/01 07:14:59;;;;;;;8.23;4.00;;;20.40;7.30;;;;;;4972049;28;20461;-71
2023/08/01 07:17:25;;;;;;;43.30;12.20;;;20.50;7.40;;;;;;4979158;23;20234;-71
2023/08/01 07:19:54;;;;;;;21.00;6.83;;;20.50;1.00;;;;;;4954527;29;20178;-72
2023/08/01 07:22:20;;;;;;;6.40;4.13;;;20.60;1.00;;;;;;4952498;29;20651;-69
2023/08/01 07:24:45;;;;;;;98.00;18.10;;;20.60;1.00;;;;;;4954503;29;20433;-68
2023/08/01 07:27:12;;;;;;;12.13;5.00;;;20.50;1.00;;;;;;4954349;29;20212;-69
2023/08/01 07:29:37;;;;;;;6.20;3.97;;;20.60;1.00;;;;;;4954416;28;20184;-69
2023/08/01 07:32:04;;;;;;;25.43;11.43;;;20.50;1.00;;;;;;4954080;28;20406;-69
2023/08/01 07:34:29;;;;;;;34.57;6.33;;;20.70;1.00;;;;;;4951241;28;20691;-69
2023/08/01 07:36:55;;;;;;;6.80;3.90;;;21.00;1.00;;;;;;4955331;28;20465;-69
2023/08/01 07:39:21;;;;;;;5.30;3.40;;;21.50;1.00;;;;;;4954336;29;20545;-69
2023/08/01 07:41:47;;;;;;;6.97;4.73;;;22.00;1.00;;;;;;4971915;28;20208;-69
2023/08/01 07:44:13;;;;;;;90.70;20.50;;;22.00;1.00;;;;;;4959554;28;20429;-69
2023/08/01 07:46:38;;;;;;;17.67;5.83;;;21.70;1.00;;;;;;4953981;29;20256;-69
2023/08/01 07:49:04;;;;;;;13.17;5.03;;;21.60;1.00;;;;;;4952288;28;20217;-69
2023/08/01 07:51:29;;;;;;;15.03;6.47;;;21.50;1.00;;;;;;4950203;28;20185;-69
2023/08/01 07:53:55;;;;;;;54.10;11.87;;;21.40;1.00;;;;;;4935100;29;20277;-69
2023/08/01 07:56:21;;;;;;;98.10;20.87;;;21.10;1.00;;;;;;4949356;29;20201;-69
2023/08/01 07:58:47;;;;;;;5.57;3.53;;;20.90;1.00;;;;;;4952848;29;20860;-69
2023/08/01 08:01:13;;;;;;;526.90;125.53;;;20.60;1.00;;;;;;4953966;29;20518;-69
2023/08/01 08:03:38;;;;;;;30.27;8.60;;;20.60;1.00;;;;;;4953986;29;20447;-69
2023/08/01 08:06:05;;;;;;;17.20;5.70;;;20.30;1.00;;;;;;4954072;29;20693;-69
2023/08/01 08:08:33;;;;;;;5.10;3.30;;;20.10;1.00;;;;;;4953720;29;20182;-69
2023/08/01 08:10:59;;;;;;;23.70;8.30;;;20.00;1.00;;;;;;4953189;29;20413;-69
2023/08/01 08:13:25;;;;;;;6.20;3.53;;;20.00;1.70;;;;;;4953633;29;20424;-70
2023/08/01 08:15:51;;;;;;;4.77;2.90;;;19.80;2.10;;;;;;4952454;29;20233;-68
2023/08/01 08:18:18;;;;;;;3.87;2.90;;;19.70;4.50;;;;;;4953777;29;20460;-70
2023/08/01 08:20:45;;;;;;;4.10;2.80;;;19.30;7.10;;;;;;4952265;29;20186;-68
2023/08/01 08:23:13;;;;;;;9.40;3.47;;;19.00;9.90;;;;;;4953543;29;20461;-68
2023/08/01 08:25:39;;;;;;;7.60;3.23;;;18.80;11.90;;;;;;4953511;29;20445;-68
2023/08/01 08:28:05;;;;;;;3.40;2.50;;;18.80;13.30;;;;;;4953540;29;20480;-68
2023/08/01 08:30:31;;;;;;;4.97;2.80;;;18.60;14.80;;;;;;4953769;29;20421;-69
2023/08/01 08:32:58;;;;;;;5.40;2.30;;;18.60;15.60;;;;;;4952000;29;20218;-69
2023/08/01 08:35:23;;;;;;;13.53;4.40;;;18.40;15.40;;;;;;4953668;29;20217;-68
2023/08/01 08:37:49;;;;;;;5.63;2.90;;;18.50;17.00;;;;;;4954024;29;20410;-69
2023/08/01 08:40:14;;;;;;;4.03;3.00;;;18.70;16.80;;;;;;4954101;29;20519;-69
2023/08/01 08:42:41;;;;;;;4.00;2.23;;;18.80;17.80;;;;;;4953251;29;20552;-69
2023/08/01 08:45:07;;;;;;;3.93;2.43;;;18.90;17.10;;;;;;4953339;29;20190;-69
2023/08/01 08:47:38;;;;;;;4.43;2.80;;;18.90;17.50;;;;;;4953370;28;20465;-69
2023/08/01 08:50:05;;;;;;;4.17;2.30;;;18.90;18.30;;;;;;4953494;28;20429;-69
2023/08/01 08:52:30;;;;;;;3.40;2.30;;;18.70;18.70;;;;;;4943911;29;20417;-69
2023/08/01 08:54:57;;;;;;;2.50;1.70;;;18.50;19.90;;;;;;4934124;29;20455;-69
2023/08/01 08:57:24;;;;;;;2.97;1.93;;;18.40;20.50;;;;;;4935573;29;20206;-69
2023/08/01 08:59:51;;;;;;;2.40;1.70;;;18.20;21.80;;;;;;4934402;29;20437;-69
2023/08/01 09:02:17;;;;;;;2.73;1.70;;;18.30;21.10;;;;;;4952489;29;20516;-69
2023/08/01 09:04:43;;;;;;;2.83;2.07;;;18.50;19.90;;;;;;4953420;28;20420;-69
2023/08/01 09:07:11;;;;;;;3.50;2.00;;;18.50;21.50;;;;;;4953307;28;20442;-70
2023/08/01 09:09:37;;;;;;;3.10;1.70;;;18.30;21.30;;;;;;4952975;28;20194;-73
2023/08/01 09:12:03;;;;;;;4.23;1.50;;;18.30;21.40;;;;;;4953007;28;20524;-69
2023/08/01 09:14:29;;;;;;;3.70;1.70;;;18.40;21.60;;;;;;4953270;28;20469;-70
2023/08/01 09:16:55;;;;;;;1.93;0.90;;;18.40;22.10;;;;;;4953108;28;20454;-70
2023/08/01 09:19:23;;;;;;;1.77;0.83;;;18.60;20.00;;;;;;4952814;28;20576;-70
2023/08/01 09:21:50;;;;;;;2.17;1.00;;;18.70;20.00;;;;;;4953488;28;20437;-70
2023/08/01 09:24:17;;;;;;;1.90;1.10;;;18.80;20.10;;;;;;4956220;29;20473;-70
2023/08/01 09:26:44;;;;;;;2.27;0.90;;;18.90;19.60;;;;;;4954354;29;20439;-68
2023/08/01 09:29:10;;;;;;;3.00;1.40;;;19.00;19.20;;;;;;4951655;28;20931;-69
2023/08/01 09:31:43;;;;;;;2.37;1.27;;;19.00;18.20;;;;;;4952638;28;20445;-73
2023/08/01 09:34:23;;;;;;;1.90;1.20;;;19.30;18.70;;;;;;4952505;29;20951;-73
2023/08/01 09:36:49;;;;;;;1.47;0.70;;;20.20;15.80;;;;;;4952628;29;20441;-74
2023/08/01 09:39:20;;;;;;;1.60;0.90;;;20.70;25.20;;;;;;4960574;28;20428;-73
2023/08/01 09:41:54;;;;;;;2.37;1.23;;;20.50;23.10;;;;;;4966204;28;20437;-73
2023/08/01 09:44:19;;;;;;;1.83;1.00;;;20.80;23.60;;;;;;4951480;28;20429;-73
2023/08/01 09:46:58;;;;;;;1.67;0.80;;;20.90;21.80;;;;;;4952314;29;20935;-73
2023/08/01 09:49:23;;;;;;;2.20;0.80;;;20.90;23.50;;;;;;4952205;29;20213;-73
2023/08/01 09:51:50;;;;;;;2.17;1.07;;;20.80;21.90;;;;;;4953376;29;20449;-72
2023/08/01 09:54:17;;;;;;;1.67;0.80;;;20.60;23.30;;;;;;4955544;29;20497;-73
2023/08/01 09:56:48;;;;;;;1.50;0.60;;;20.50;24.20;;;;;;4955683;29;20438;-72
2023/08/01 09:59:25;;;;;;;1.87;0.70;;;20.50;23.00;;;;;;4955870;29;20449;-72
2023/08/01 10:01:54;;;;;;;1.50;0.70;;;20.80;24.10;;;;;;4954175;29;20935;-72
2023/08/01 10:04:30;;;;;;;1.40;0.60;;;20.60;22.20;;;;;;4955822;28;20783;-72
2023/08/01 10:07:03;;;;;;;5.37;0.87;;;20.60;22.90;;;;;;4955356;28;20449;-72
2023/08/01 10:09:31;;;;;;;1.33;0.50;;;20.40;23.70;;;;;;4955519;29;20475;-73
2023/08/01 10:12:00;;;;;;;1.60;0.63;;;20.20;23.70;;;;;;4955140;28;20440;-74
2023/08/01 10:14:27;;;;;;;1.90;1.00;;;19.80;27.90;;;;;;4944101;28;20462;-72
2023/08/01 10:16:53;;;;;;;5.33;0.83;;;19.70;30.00;;;;;;4936280;29;20454;-73
2023/08/01 10:19:19;;;;;;;1.53;0.70;;;19.20;31.40;;;;;;4949114;29;20903;-73
2023/08/01 10:21:47;;;;;;;2.70;1.00;;;19.20;33.80;;;;;;4955157;28;20410;-72
2023/08/01 10:24:14;;;;;;;1.87;0.80;;;19.20;35.40;;;;;;4955348;28;20414;-73
2023/08/01 10:26:40;;;;;;;2.27;1.17;;;18.70;36.60;;;;;;4955404;28;20815;-73
2023/08/01 10:29:05;;;;;;;1.93;0.90;;;18.40;41.90;;;;;;4955094;28;20429;-73
2023/08/01 10:31:32;;;;;;;5.03;1.13;;;18.40;44.50;;;;;;4955135;28;20209;-74
2023/08/01 10:34:12;;;;;;;2.03;0.90;;;18.40;45.40;;;;;;4954523;28;20212;-74
2023/08/01 10:36:38;;;;;;;4.30;1.53;;;18.50;47.10;;;;;;4955180;28;20441;-73
2023/08/01 10:39:03;;;;;;;2.00;1.17;;;18.50;45.10;;;;;;4954866;28;20432;-74
2023/08/01 10:41:34;;;;;;;2.97;1.10;;;18.70;45.80;;;;;;4955021;29;20217;-73
2023/08/01 10:44:15;;;;;;;2.20;1.20;;;18.90;44.50;;;;;;4955205;29;20201;-74
2023/08/01 10:46:51;;;;;;;3.03;1.40;;;19.20;43.20;;;;;;4954876;29;20432;-73
2023/08/01 10:49:18;;;;;;;2.53;1.10;;;19.50;41.70;;;;;;4954796;29;20787;-75
2023/08/01 10:51:44;;;;;;;1.63;0.97;;;20.20;38.10;;;;;;4955803;28;20425;-70
2023/08/01 10:54:21;;;;;;;3.43;1.13;;;20.90;34.50;;;;;;4954790;29;20560;-69
2023/08/01 10:56:47;;;;;;;2.83;1.30;;;21.20;28.80;;;;;;4954915;29;20817;-70
2023/08/01 10:59:14;;;;;;;2.23;1.10;;;21.50;27.60;;;;;;4955695;29;20416;-68
2023/08/01 11:01:52;;;;;;;2.10;1.10;;;21.30;27.40;;;;;;4954472;29;20414;-68
2023/08/01 11:04:19;;;;;;;2.20;1.20;;;21.60;27.10;;;;;;4953275;29;20465;-68
2023/08/01 11:06:50;;;;;;;1.90;0.77;;;21.80;25.20;;;;;;4953698;29;20500;-68
2023/08/01 11:09:21;;;;;;;2.43;1.00;;;21.70;26.10;;;;;;4953486;29;20478;-68
2023/08/01 11:11:49;;;;;;;1.60;0.70;;;22.00;24.90;;;;;;4954663;29;20422;-68
2023/08/01 11:14:15;;;;;;;2.37;1.30;;;21.60;24.30;;;;;;4954614;29;20544;-68
2023/08/01 11:16:42;;;;;;;1.90;0.83;;;22.00;23.30;;;;;;4954835;29;21053;-68
2023/08/01 11:19:22;;;;;;;2.40;1.37;;;22.40;21.80;;;;;;4954851;29;20317;-68
2023/08/01 11:21:48;;;;;;;2.67;1.30;;;22.50;20.70;;;;;;4954605;29;20492;-68
2023/08/01 11:24:14;;;;;;;2.10;0.80;;;22.90;20.70;;;;;;4953596;29;20462;-68
2023/08/01 11:26:43;;;;;;;2.90;1.13;;;23.90;19.20;;;;;;4954258;29;20237;-68
2023/08/01 11:29:10;;;;;;;2.43;1.03;;;24.00;15.70;;;;;;4954463;29;20214;-68
2023/08/01 11:31:36;;;;;;;1.80;1.00;;;23.70;18.20;;;;;;4952460;29;20520;-68
2023/08/01 11:34:02;;;;;;;5.00;1.37;;;23.20;18.70;;;;;;4954294;28;20529;-68
2023/08/01 11:36:29;;;;;;;2.10;1.20;;;23.50;19.00;;;;;;4954405;28;20208;-68
2023/08/01 11:38:59;;;;;;;1.80;0.93;;;24.10;17.00;;;;;;4954642;28;20437;-68
2023/08/01 11:41:27;;;;;;;2.17;1.20;;;24.70;15.70;;;;;;4954062;28;20473;-67
2023/08/01 11:43:54;;;;;;;2.90;1.30;;;24.90;14.80;;;;;;4952380;28;20782;-67
2023/08/01 11:46:21;;;;;;;2.13;1.47;;;24.90;14.00;;;;;;4953515;28;20468;-68
2023/08/01 11:48:47;;;;;;;2.00;0.93;;;24.80;13.40;;;;;;4954072;28;20448;-67
2023/08/01 11:51:13;;;;;;;2.20;1.30;;;24.40;14.40;;;;;;4952503;29;20437;-67
2023/08/01 11:53:39;;;;;;;1.80;1.20;;;24.50;14.40;;;;;;4953486;28;20993;-68
2023/08/01 11:56:05;;;;;;;2.40;1.20;;;24.70;11.70;;;;;;4954243;29;20622;-69
2023/08/01 11:58:32;;;;;;;1.87;1.30;;;24.70;11.50;;;;;;4953730;29;20182;-69
2023/08/01 12:01:09;;;;;;;1.80;1.23;;;24.90;10.90;;;;;;4953541;29;20472;-69
2023/08/01 12:03:48;;;;;;;2.00;1.43;;;24.70;11.90;;;;;;4955014;29;20409;-69
2023/08/01 12:06:14;;;;;;;2.80;1.53;;;24.70;8.30;;;;;;4953623;29;20508;-69
2023/08/01 12:08:42;;;;;;;3.07;1.73;;;24.60;9.10;;;;;;4953614;29;20417;-69
2023/08/01 12:11:40;;;;;;;3.10;1.53;;;25.10;9.20;;;;;;4953682;29;21017;-68
2023/08/01 12:14:11;;;;;;;5.80;1.90;;;25.20;9.20;;;;;;4913156;29;20883;-69
2023/08/01 12:16:39;;;;;;;3.10;1.77;;;25.00;5.60;;;;;;4919849;28;20466;-68
2023/08/01 12:19:05;;;;;;;2.80;1.90;;;24.50;6.10;;;;;;4953599;29;20402;-68
2023/08/01 12:21:32;;;;;;;2.27;1.60;;;24.70;5.30;;;;;;4953324;29;20783;-69
2023/08/01 12:23:58;;;;;;;2.53;2.10;;;24.50;4.80;;;;;;4953621;29;20764;-68
2023/08/01 12:26:24;;;;;;;2.30;2.00;;;24.50;4.60;;;;;;4953598;29;20437;-69
2023/08/01 12:28:49;;;;;;;1.90;1.60;;;24.30;5.20;;;;;;4954014;29;20209;-68
2023/08/01 12:31:17;;;;;;;2.57;2.00;;;23.50;5.40;;;;;;4953621;29;20926;-68
2023/08/01 12:33:43;;;;;;;3.50;2.00;;;23.40;4.80;;;;;;4951933;29;20193;-69
2023/08/01 12:36:08;;;;;;;2.27;2.00;;;23.60;6.60;;;;;;4953506;29;20426;-68
2023/08/01 12:38:37;;;;;;;2.93;1.90;;;23.90;6.80;;;;;;4953679;29;20201;-68
2023/08/01 12:41:02;;;;;;;2.90;2.37;;;23.50;4.50;;;;;;4952209;29;20826;-68
2023/08/01 12:43:28;;;;;;;2.80;2.50;;;23.10;5.10;;;;;;4953311;29;20418;-68
2023/08/01 12:45:55;;;;;;;3.13;2.50;;;22.80;6.40;;;;;;4953733;29;20277;-71